MSC Florentina — HPFH — position and weather

sailwx.info

Track history (hours):
 
Tides and Currents Weather Stations Pressure Air Temp Water Temp Dewpoint Dewpoint Depression Visibility Wind Speed Wind Dir Waves Ship Positions

MSC Florentina

Last reported at 2016-Aug-26 04:27 UTC. Time now 2016-Aug-29 07:11 UTC.
Position N 11°23' W 061°47'.

Length 300 m; draft 13 m.

Type: Ship (hazmat cat A). MMSI: 352870000.

Date/timePositionNaut miles runAvg speedWind from/ knotsBaromVisibWave heightAir tempDewpointWater temp
2016-Aug-26 04:27N 11°23' W 061°47'  
2016-Aug-18 14:33S 22°55' W 041°13'1919.0
2016-Aug-18 13:34S 23°05' W 041°31'25320.8
2016-Aug-18 01:23S 24°17' W 045°56'1720.2
2016-Aug-18 00:33S 24°16' W 046°15'1414.1
2016-Aug-17 23:33S 24°03' W 046°21'6 6.1
2016-Aug-17 22:32S 23°58' W 046°18'0 0.1
2016-Aug-17 21:29S 23°58' W 046°18'0 0.0
2016-Aug-17 20:29S 23°58' W 046°18'0 0.0
2016-Aug-17 19:29S 23°58' W 046°18'0 0.0
2016-Aug-17 18:29S 23°58' W 046°18'0 0.0
2016-Aug-17 17:23S 23°58' W 046°18'0 0.0
2016-Aug-17 16:29S 23°58' W 046°18'0 0.0
2016-Aug-17 14:29S 23°58' W 046°18'0 0.0
2016-Aug-17 13:23S 23°58' W 046°18'0 0.0
2016-Aug-17 12:23S 23°58' W 046°18'0 0.0
2016-Aug-17 11:29S 23°58' W 046°18'0 0.0
2016-Aug-17 10:29S 23°58' W 046°18'0 0.0
2016-Aug-17 07:32S 23°58' W 046°18'0 0.0
2016-Aug-17 06:17S 23°58' W 046°18'0 0.0
2016-Aug-17 04:29S 23°58' W 046°18'0 0.0
2016-Aug-17 03:33S 23°58' W 046°18'5 4.5
2016-Aug-17 02:33S 24°01' W 046°21'9 9.5
2016-Aug-17 01:33S 24°11' W 046°20'5 4.8
2016-Aug-17 00:32S 24°13' W 046°15'0 0.0
2016-Aug-16 23:32S 24°13' W 046°15'0 0.0
2016-Aug-16 22:32S 24°13' W 046°15'0 0.0
2016-Aug-16 21:32S 24°13' W 046°15'0 0.0
2016-Aug-16 20:26S 24°13' W 046°15'0 0.0
2016-Aug-16 19:26S 24°13' W 046°15'0 0.1
2016-Aug-16 18:26S 24°13' W 046°15'0 0.0
2016-Aug-16 17:32S 24°13' W 046°15'0 0.0
2016-Aug-16 16:32S 24°13' W 046°15'0 0.0
2016-Aug-16 15:26S 24°13' W 046°15'0 0.0
2016-Aug-16 14:32S 24°13' W 046°15'0 0.0
2016-Aug-16 13:32S 24°13' W 046°15'0 0.0
2016-Aug-16 12:32S 24°13' W 046°15'0 0.1
2016-Aug-16 11:20S 24°13' W 046°15'0 0.0
2016-Aug-16 10:32S 24°13' W 046°15'0 0.0
2016-Aug-16 09:26S 24°13' W 046°15'0 0.0
2016-Aug-16 08:32S 24°13' W 046°15'0 0.0
2016-Aug-16 07:32S 24°13' W 046°15'0 0.0
2016-Aug-16 04:32S 24°13' W 046°15'  
Track history (hours):
 
Tides and Currents Weather Stations Pressure Air Temp Water Temp Dewpoint Dewpoint Depression Visibility Wind Speed Wind Dir Waves Ship Positions

MSC Florentina

Last reported at 2016-Aug-26 04:27 UTC. Time now 2016-Aug-29 07:11 UTC.
Position N 11°23' W 061°47'.

Length 300 m; draft 13 m.

Type: Ship (hazmat cat A). MMSI: 352870000.

Date/timePositionNaut miles runAvg speedWind from/ knotsBaromVisibWave heightAir tempDewpointWater temp
2016-Aug-26 04:27N 11°23' W 061°47'  
2016-Aug-18 14:33S 22°55' W 041°13'1919.0
2016-Aug-18 13:34S 23°05' W 041°31'25320.8
2016-Aug-18 01:23S 24°17' W 045°56'1720.2
2016-Aug-18 00:33S 24°16' W 046°15'1414.1
2016-Aug-17 23:33S 24°03' W 046°21'6 6.1
2016-Aug-17 22:32S 23°58' W 046°18'0 0.1
2016-Aug-17 21:29S 23°58' W 046°18'0 0.0
2016-Aug-17 20:29S 23°58' W 046°18'0 0.0
2016-Aug-17 19:29S 23°58' W 046°18'0 0.0
2016-Aug-17 18:29S 23°58' W 046°18'0 0.0
2016-Aug-17 17:23S 23°58' W 046°18'0 0.0
2016-Aug-17 16:29S 23°58' W 046°18'0 0.0
2016-Aug-17 14:29S 23°58' W 046°18'0 0.0
2016-Aug-17 13:23S 23°58' W 046°18'0 0.0
2016-Aug-17 12:23S 23°58' W 046°18'0 0.0
2016-Aug-17 11:29S 23°58' W 046°18'0 0.0
2016-Aug-17 10:29S 23°58' W 046°18'0 0.0
2016-Aug-17 07:32S 23°58' W 046°18'0 0.0
2016-Aug-17 06:17S 23°58' W 046°18'0 0.0
2016-Aug-17 04:29S 23°58' W 046°18'0 0.0
2016-Aug-17 03:33S 23°58' W 046°18'5 4.5
2016-Aug-17 02:33S 24°01' W 046°21'9 9.5
2016-Aug-17 01:33S 24°11' W 046°20'5 4.8
2016-Aug-17 00:32S 24°13' W 046°15'0 0.0
2016-Aug-16 23:32S 24°13' W 046°15'0 0.0
2016-Aug-16 22:32S 24°13' W 046°15'0 0.0
2016-Aug-16 21:32S 24°13' W 046°15'0 0.0
2016-Aug-16 20:26S 24°13' W 046°15'0 0.0
2016-Aug-16 19:26S 24°13' W 046°15'0 0.1
2016-Aug-16 18:26S 24°13' W 046°15'0 0.0
2016-Aug-16 17:32S 24°13' W 046°15'0 0.0
2016-Aug-16 16:32S 24°13' W 046°15'0 0.0
2016-Aug-16 15:26S 24°13' W 046°15'0 0.0
2016-Aug-16 14:32S 24°13' W 046°15'0 0.0
2016-Aug-16 13:32S 24°13' W 046°15'0 0.0
2016-Aug-16 12:32S 24°13' W 046°15'0 0.1
2016-Aug-16 11:20S 24°13' W 046°15'0 0.0
2016-Aug-16 10:32S 24°13' W 046°15'0 0.0
2016-Aug-16 09:26S 24°13' W 046°15'0 0.0
2016-Aug-16 08:32S 24°13' W 046°15'0 0.0
2016-Aug-16 07:32S 24°13' W 046°15'0 0.0
2016-Aug-16 04:32S 24°13' W 046°15'  

Dump ship's entire track history